createdAt,value
2018-01-14T00:02:00.188Z,74.89
2018-01-14T00:04:27.680Z,74.97
2018-01-14T00:06:55.527Z,74.59
2018-01-14T00:09:22.992Z,73.54
2018-01-14T00:11:51.807Z,74.42
2018-01-14T00:14:19.282Z,74.25
2018-01-14T00:16:46.825Z,74.49
2018-01-14T00:19:14.301Z,74.78
2018-01-14T00:21:41.757Z,75.31
2018-01-14T00:24:09.248Z,74.84
2018-01-14T00:26:36.761Z,74.43
2018-01-14T00:29:04.246Z,75.28
2018-01-14T00:31:31.710Z,75.00
2018-01-14T00:33:59.210Z,75.05
2018-01-14T00:36:26.707Z,74.78
2018-01-14T00:38:54.426Z,74.80
2018-01-14T00:41:21.902Z,74.64
2018-01-14T00:43:49.415Z,74.71
2018-01-14T00:46:16.898Z,74.85
2018-01-14T00:48:44.492Z,74.47
2018-01-14T00:51:12.325Z,74.18
2018-01-14T00:53:39.808Z,74.40
2018-01-14T00:56:07.299Z,74.11
2018-01-14T00:58:34.783Z,74.70
2018-01-14T01:01:02.262Z,74.85
2018-01-14T01:03:29.727Z,75.58
2018-01-14T01:05:57.219Z,75.30
2018-01-14T01:08:24.687Z,75.36
2018-01-14T01:10:52.191Z,75.00
2018-01-14T01:13:19.646Z,74.58
2018-01-14T01:15:47.162Z,75.18
2018-01-14T01:18:14.634Z,75.99
2018-01-14T01:20:42.338Z,74.59
2018-01-14T01:23:10.208Z,75.28
2018-01-14T01:25:37.675Z,75.79
2018-01-14T01:28:05.171Z,75.65
2018-01-14T01:30:33.461Z,76.41
2018-01-14T01:33:00.978Z,76.93
2018-01-14T01:35:28.474Z,77.34
2018-01-14T01:37:55.991Z,77.54
2018-01-14T01:40:23.495Z,76.35
2018-01-14T01:42:51.058Z,75.74
2018-01-14T01:45:18.583Z,76.00
2018-01-14T01:47:46.130Z,76.71
2018-01-14T01:50:13.643Z,76.71
2018-01-14T01:52:41.126Z,76.96
2018-01-14T01:55:08.627Z,75.70
2018-01-14T01:57:36.106Z,76.28
2018-01-14T02:00:03.616Z,75.80
2018-01-14T02:02:31.078Z,76.42
2018-01-14T02:04:58.598Z,76.06
2018-01-14T02:07:26.091Z,75.99
2018-01-14T02:09:53.582Z,76.13
2018-01-14T02:12:21.066Z,75.47
2018-01-14T02:14:48.706Z,76.00
2018-01-14T02:17:16.178Z,76.10
2018-01-14T02:19:43.643Z,76.30
2018-01-14T02:22:11.143Z,76.76
2018-01-14T02:24:38.839Z,76.13
2018-01-14T02:27:06.365Z,76.48
2018-01-14T02:29:33.868Z,76.59
2018-01-14T02:32:01.734Z,76.31
2018-01-14T02:34:29.223Z,76.43
2018-01-14T02:36:56.714Z,76.05
2018-01-14T02:39:24.199Z,75.96
2018-01-14T02:41:51.690Z,76.88
2018-01-14T02:44:19.167Z,75.83
2018-01-14T02:46:46.667Z,75.64
2018-01-14T02:49:14.144Z,76.03
2018-01-14T02:51:41.638Z,75.72
2018-01-14T02:54:09.149Z,75.86
2018-01-14T02:56:36.652Z,75.55
2018-01-14T02:59:04.500Z,76.26
2018-01-14T03:01:32.000Z,76.10
2018-01-14T03:03:59.526Z,76.32
2018-01-14T03:06:27.010Z,76.11
2018-01-14T03:08:54.527Z,76.09
2018-01-14T03:11:22.020Z,75.69
2018-01-14T03:13:49.506Z,75.50
2018-01-14T03:16:16.979Z,76.26
2018-01-14T03:18:44.489Z,75.77
2018-01-14T03:21:11.970Z,76.50
2018-01-14T03:23:39.635Z,76.15
2018-01-14T03:26:08.303Z,75.12
2018-01-14T03:28:36.003Z,75.98
2018-01-14T03:31:03.493Z,75.42
2018-01-14T03:33:30.972Z,76.16
2018-01-14T03:35:58.458Z,76.35
2018-01-14T03:38:25.939Z,75.35
2018-01-14T03:40:53.754Z,76.56
2018-01-14T03:43:21.221Z,76.88
2018-01-14T03:45:48.933Z,77.25
2018-01-14T03:48:16.435Z,77.06
2018-01-14T03:50:43.987Z,76.62
2018-01-14T03:53:11.462Z,76.56
2018-01-14T03:55:39.119Z,77.01
2018-01-14T03:58:06.591Z,76.78
2018-01-14T04:00:34.058Z,77.05
2018-01-14T04:03:01.636Z,77.51
2018-01-14T04:05:29.086Z,77.31
2018-01-14T04:07:56.613Z,77.39
2018-01-14T04:10:24.111Z,77.04
2018-01-14T04:12:51.643Z,77.60
2018-01-14T04:15:19.351Z,77.82
2018-01-14T04:17:46.852Z,77.62
2018-01-14T04:20:14.331Z,77.77
2018-01-14T04:22:41.826Z,77.78
2018-01-14T04:25:09.336Z,77.57
2018-01-14T04:27:36.864Z,78.11
2018-01-14T04:30:04.370Z,77.20
2018-01-14T04:32:31.866Z,77.30
2018-01-14T04:34:59.398Z,77.08
2018-01-14T04:37:26.967Z,77.62
2018-01-14T04:39:54.478Z,77.11
2018-01-14T04:42:21.974Z,77.47
2018-01-14T04:44:49.463Z,77.48
2018-01-14T04:47:16.995Z,76.96
2018-01-14T04:49:44.498Z,77.32
2018-01-14T04:52:11.982Z,77.25
2018-01-14T04:54:39.523Z,77.39
2018-01-14T04:57:07.036Z,77.04
2018-01-14T04:59:34.962Z,77.67
2018-01-14T05:02:02.458Z,78.18
2018-01-14T05:04:29.953Z,77.46
2018-01-14T05:06:57.478Z,77.34
2018-01-14T05:09:24.990Z,77.51
2018-01-14T05:11:52.495Z,77.91
2018-01-14T05:14:19.960Z,77.46
2018-01-14T05:16:47.479Z,77.25
2018-01-14T05:19:14.983Z,76.77
2018-01-14T05:21:42.631Z,77.74
2018-01-14T05:24:10.498Z,77.69
2018-01-14T05:26:38.003Z,76.98
2018-01-14T05:29:05.506Z,77.50
2018-01-14T05:31:33.016Z,77.32
2018-01-14T05:34:00.563Z,77.86
2018-01-14T05:36:28.115Z,77.55
2018-01-14T05:38:55.643Z,78.14
2018-01-14T05:41:23.179Z,77.24
2018-01-14T05:43:50.691Z,77.30
2018-01-14T05:46:18.232Z,77.32
2018-01-14T05:48:45.766Z,76.81
2018-01-14T05:51:13.235Z,77.45
2018-01-14T05:53:40.887Z,78.17
2018-01-14T05:56:08.363Z,77.31
2018-01-14T05:58:35.854Z,76.64
2018-01-14T06:01:03.381Z,76.84
2018-01-14T06:03:31.107Z,77.03
2018-01-14T06:05:58.649Z,77.18
2018-01-14T06:08:26.478Z,76.69
2018-01-14T06:10:53.966Z,76.82
2018-01-14T06:13:21.443Z,76.76
2018-01-14T06:15:48.941Z,77.17
2018-01-14T06:18:16.446Z,76.59
2018-01-14T06:20:44.002Z,77.01
2018-01-14T06:23:11.486Z,77.66
2018-01-14T06:25:39.010Z,78.19
2018-01-14T06:28:06.482Z,77.49
2018-01-14T06:30:33.974Z,76.85
2018-01-14T06:33:01.922Z,76.63
2018-01-14T06:35:29.411Z,76.10
2018-01-14T06:37:56.950Z,76.54
2018-01-14T06:40:24.443Z,76.87
2018-01-14T06:42:51.988Z,76.62
2018-01-14T06:45:19.502Z,76.56
2018-01-14T06:47:47.382Z,76.08
2018-01-14T06:50:14.855Z,75.72
2018-01-14T06:52:42.395Z,76.08
2018-01-14T06:55:09.878Z,76.56
2018-01-14T06:57:37.414Z,76.13
2018-01-14T07:00:04.899Z,76.38
2018-01-14T07:02:32.416Z,76.30
2018-01-14T07:04:59.934Z,76.14
2018-01-14T07:07:27.833Z,76.93
2018-01-14T07:09:55.322Z,76.72
2018-01-14T07:12:23.047Z,76.04
2018-01-14T07:14:50.542Z,76.98
2018-01-14T07:17:18.654Z,76.97
2018-01-14T07:19:46.133Z,76.73
2018-01-14T07:22:13.666Z,76.67
2018-01-14T07:24:41.150Z,76.90
2018-01-14T07:27:08.660Z,76.22
2018-01-14T07:29:36.145Z,76.11
2018-01-14T07:32:03.671Z,76.61
2018-01-14T07:34:31.135Z,76.33
2018-01-14T07:36:58.858Z,76.90
2018-01-14T07:39:26.725Z,76.96
2018-01-14T07:41:54.243Z,77.10
2018-01-14T07:44:21.742Z,75.85
2018-01-14T07:46:49.288Z,76.46
2018-01-14T07:49:16.775Z,75.80
2018-01-14T07:51:44.282Z,76.25
2018-01-14T07:54:11.787Z,76.31
2018-01-14T07:56:39.310Z,75.79
2018-01-14T07:59:06.811Z,76.33
2018-01-14T08:01:34.292Z,76.56
2018-01-14T08:04:02.043Z,76.07
2018-01-14T08:06:29.535Z,76.42
2018-01-14T08:08:57.024Z,76.88
2018-01-14T08:11:24.490Z,76.38
2018-01-14T08:13:51.990Z,75.85
2018-01-14T08:16:19.478Z,75.91
2018-01-14T08:18:47.202Z,76.44
2018-01-14T08:21:14.698Z,76.54
2018-01-14T08:23:42.222Z,77.12
2018-01-14T08:26:09.912Z,75.80
2018-01-14T08:28:37.434Z,75.70
2018-01-14T08:31:04.902Z,75.68
2018-01-14T08:33:32.418Z,75.49
2018-01-14T08:36:00.277Z,76.07
2018-01-14T08:38:27.735Z,76.09
2018-01-14T08:40:55.234Z,75.36
2018-01-14T08:43:22.731Z,75.29
2018-01-14T08:45:50.212Z,74.78
2018-01-14T08:48:17.699Z,74.84
2018-01-14T08:50:45.174Z,75.11
2018-01-14T08:53:12.675Z,75.33
2018-01-14T08:55:40.178Z,74.39
2018-01-14T08:58:07.708Z,74.96
2018-01-14T09:00:35.235Z,74.07
2018-01-14T09:03:02.812Z,74.30
2018-01-14T09:05:30.301Z,75.12
2018-01-14T09:07:57.798Z,73.95
2018-01-14T09:10:25.266Z,73.93
2018-01-14T09:12:52.978Z,73.20
2018-01-14T09:15:20.471Z,74.24
2018-01-14T09:17:48.119Z,74.13
2018-01-14T09:20:15.626Z,73.14
2018-01-14T09:22:43.098Z,72.64
2018-01-14T09:25:10.595Z,73.25
2018-01-14T09:27:38.063Z,72.59
2018-01-14T09:30:05.783Z,72.61
2018-01-14T09:32:33.263Z,72.55
2018-01-14T09:35:00.752Z,72.14
2018-01-14T09:37:28.226Z,71.99
2018-01-14T09:39:55.897Z,71.92
2018-01-14T09:42:23.376Z,72.47
2018-01-14T09:44:50.881Z,72.37
2018-01-14T09:47:18.351Z,72.29
2018-01-14T09:49:45.871Z,71.67
2018-01-14T09:52:13.334Z,72.14
2018-01-14T09:54:40.822Z,71.71
2018-01-14T09:57:08.286Z,71.66
2018-01-14T09:59:39.308Z,71.54
2018-01-14T10:02:06.789Z,71.93
2018-01-14T10:04:34.506Z,71.63
2018-01-14T10:07:02.032Z,71.97
2018-01-14T10:09:29.530Z,71.66
2018-01-14T10:11:57.261Z,71.55
2018-01-14T10:14:24.801Z,71.16
2018-01-14T10:16:52.283Z,71.17
2018-01-14T10:19:19.778Z,71.21
2018-01-14T10:21:47.254Z,69.72
2018-01-14T10:24:14.755Z,73.49
2018-01-14T10:26:42.233Z,72.85
2018-01-14T10:29:09.731Z,72.08
2018-01-14T10:31:37.721Z,70.82
2018-01-14T10:34:07.088Z,73.28
2018-01-14T10:36:34.608Z,71.37
2018-01-14T10:39:02.116Z,70.37
2018-01-14T10:41:29.644Z,70.02
2018-01-14T10:43:57.106Z,70.06
2018-01-14T10:46:25.462Z,69.89
2018-01-14T10:48:52.946Z,69.41
2018-01-14T10:51:20.666Z,70.00
2018-01-14T10:53:48.130Z,69.66
2018-01-14T10:56:15.622Z,70.88
2018-01-14T10:58:43.094Z,69.48
2018-01-14T11:01:11.772Z,68.68
2018-01-14T11:03:39.247Z,69.33
2018-01-14T11:06:07.274Z,68.87
2018-01-14T11:08:36.743Z,69.14
2018-01-14T11:11:04.226Z,69.09
2018-01-14T11:13:31.701Z,68.29
2018-01-14T11:15:59.278Z,71.58
2018-01-14T11:18:26.976Z,69.56
2018-01-14T11:20:54.480Z,68.65
2018-01-14T11:23:23.794Z,69.34
2018-01-14T11:25:52.434Z,69.12
2018-01-14T11:28:19.932Z,68.21
2018-01-14T11:30:47.430Z,68.16
2018-01-14T11:33:14.906Z,68.46
2018-01-14T11:35:42.403Z,68.12
2018-01-14T11:38:09.908Z,68.33
2018-01-14T11:40:37.406Z,68.06
2018-01-14T11:43:04.865Z,68.01
2018-01-14T11:45:32.580Z,69.18
2018-01-14T11:48:00.080Z,68.33
2018-01-14T11:50:27.606Z,68.50
2018-01-14T11:52:55.080Z,67.62
2018-01-14T11:55:22.807Z,67.74
2018-01-14T11:57:50.299Z,68.14
2018-01-14T12:00:18.179Z,67.90
2018-01-14T12:02:45.683Z,66.43
2018-01-14T12:05:13.151Z,66.86
2018-01-14T12:07:40.658Z,67.84
2018-01-14T12:10:08.174Z,67.15
2018-01-14T12:12:35.697Z,67.28
2018-01-14T12:15:03.178Z,67.41
2018-01-14T12:17:30.899Z,67.38
2018-01-14T12:19:58.407Z,67.70
2018-01-14T12:22:25.973Z,67.36
2018-01-14T12:24:53.507Z,67.34
2018-01-14T12:27:21.014Z,67.71
2018-01-14T12:30:02.620Z,67.15
2018-01-14T12:32:41.867Z,67.15
2018-01-14T12:35:09.376Z,67.82
2018-01-14T12:37:36.888Z,69.39
2018-01-14T12:40:04.350Z,68.83
2018-01-14T12:42:31.918Z,70.15
2018-01-14T12:44:59.691Z,69.11
2018-01-14T12:47:27.207Z,69.98
2018-01-14T12:49:54.722Z,70.40
2018-01-14T12:52:22.280Z,69.88
2018-01-14T12:54:49.755Z,70.06
2018-01-14T12:57:17.265Z,69.75
2018-01-14T12:59:44.771Z,69.32
2018-01-14T13:02:12.319Z,69.22
2018-01-14T13:04:39.773Z,71.61
2018-01-14T13:07:07.661Z,70.70
2018-01-14T13:09:35.444Z,70.39
2018-01-14T13:12:02.938Z,70.18
2018-01-14T13:14:30.479Z,69.18
2018-01-14T13:16:58.332Z,69.80
2018-01-14T13:19:25.872Z,69.95
2018-01-14T13:21:53.461Z,71.64
2018-01-14T13:24:20.988Z,70.61
2018-01-14T13:26:48.479Z,69.22
2018-01-14T13:29:17.595Z,69.27
2018-01-14T13:31:45.174Z,69.84
2018-01-14T13:34:12.695Z,69.80
2018-01-14T13:36:40.199Z,68.67
2018-01-14T13:39:07.713Z,70.16
2018-01-14T13:41:35.286Z,69.95
2018-01-14T13:44:02.818Z,70.66
2018-01-14T13:46:30.356Z,70.31
2018-01-14T13:48:57.949Z,71.52
2018-01-14T13:51:33.790Z,70.64
2018-01-14T13:54:01.338Z,70.48
2018-01-14T13:56:28.846Z,71.26
2018-01-14T13:58:56.445Z,71.16
2018-01-14T14:01:23.939Z,70.84
2018-01-14T14:03:51.451Z,70.93
2018-01-14T14:06:18.918Z,72.26
2018-01-14T14:08:46.426Z,71.03
2018-01-14T14:11:13.929Z,72.21
2018-01-14T14:13:41.451Z,73.36
2018-01-14T14:16:08.946Z,72.90
2018-01-14T14:18:36.450Z,72.26
2018-01-14T14:21:03.946Z,71.92
2018-01-14T14:23:31.788Z,71.55
2018-01-14T14:25:59.304Z,71.37
2018-01-14T14:28:26.834Z,71.79
2018-01-14T14:30:54.334Z,72.04
2018-01-14T14:33:22.582Z,73.14
2018-01-14T14:35:50.282Z,72.56
2018-01-14T14:38:17.788Z,72.43
2018-01-14T14:40:45.262Z,72.81
2018-01-14T14:43:12.768Z,73.02
2018-01-14T14:45:40.487Z,73.32
2018-01-14T14:48:07.974Z,73.94
2018-01-14T14:50:35.462Z,73.52
2018-01-14T14:53:02.955Z,73.78
2018-01-14T14:55:30.435Z,72.67
2018-01-14T14:57:57.907Z,73.29
2018-01-14T15:00:25.428Z,73.45
2018-01-14T15:02:52.913Z,73.35
2018-01-14T15:05:20.397Z,73.17
2018-01-14T15:07:47.871Z,73.54
2018-01-14T15:10:15.591Z,73.41
2018-01-14T15:12:43.087Z,73.79
2018-01-14T15:15:10.611Z,73.76
2018-01-14T15:17:38.095Z,74.04
2018-01-14T15:20:05.661Z,73.82
2018-01-14T15:22:33.182Z,73.56
2018-01-14T15:25:00.718Z,73.74
2018-01-14T15:27:28.427Z,74.84
2018-01-14T15:29:55.920Z,74.70
2018-01-14T15:32:23.847Z,75.35
2018-01-14T15:34:51.367Z,75.31
2018-01-14T15:37:18.883Z,74.81
2018-01-14T15:39:46.685Z,75.34
2018-01-14T15:42:14.154Z,75.27
2018-01-14T15:44:41.642Z,75.43
2018-01-14T15:47:09.503Z,75.39
2018-01-14T15:49:37.018Z,75.61
2018-01-14T15:52:04.526Z,75.56
2018-01-14T15:54:32.027Z,75.39
2018-01-14T15:56:59.538Z,75.36
2018-01-14T15:59:27.056Z,75.57
2018-01-14T16:01:54.730Z,75.85
2018-01-14T16:04:22.715Z,75.70
2018-01-14T16:06:50.217Z,75.86
2018-01-14T16:09:17.711Z,75.70
2018-01-14T16:11:45.234Z,76.25
2018-01-14T16:14:12.698Z,75.43
2018-01-14T16:16:40.186Z,75.66
2018-01-14T16:19:07.741Z,76.23
2018-01-14T16:21:36.424Z,76.67
2018-01-14T16:24:03.938Z,76.12
2018-01-14T16:26:31.455Z,76.35
2018-01-14T16:28:59.146Z,76.61
2018-01-14T16:31:26.642Z,76.54
2018-01-14T16:33:54.142Z,76.94
2018-01-14T16:36:21.675Z,77.04
2018-01-14T16:38:49.151Z,77.48
2018-01-14T16:41:16.643Z,77.39
2018-01-14T16:43:44.616Z,77.30
2018-01-14T16:46:12.160Z,76.92
2018-01-14T16:48:39.715Z,76.88
2018-01-14T16:51:07.267Z,76.67
2018-01-14T16:53:34.727Z,76.47
2018-01-14T16:56:02.239Z,77.00
2018-01-14T16:58:29.942Z,76.89
2018-01-14T17:00:57.430Z,77.01
2018-01-14T17:03:24.903Z,77.10
2018-01-14T17:05:52.399Z,76.89
2018-01-14T17:08:19.882Z,76.90
2018-01-14T17:10:47.450Z,76.60
2018-01-14T17:13:14.924Z,76.77
2018-01-14T17:15:42.465Z,77.03
2018-01-14T17:18:09.994Z,76.56
2018-01-14T17:20:37.498Z,76.51
2018-01-14T17:23:04.990Z,76.57
2018-01-14T17:25:32.726Z,76.81
2018-01-14T17:28:00.640Z,76.90
2018-01-14T17:30:28.115Z,76.86
2018-01-14T17:32:55.607Z,76.48
2018-01-14T17:35:23.119Z,76.87
2018-01-14T17:37:50.707Z,77.32
2018-01-14T17:40:18.225Z,77.31
2018-01-14T17:42:46.030Z,77.02
2018-01-14T17:45:20.039Z,77.29
2018-01-14T17:47:47.562Z,77.55
2018-01-14T17:50:15.282Z,77.42
2018-01-14T17:52:42.836Z,77.43
2018-01-14T17:55:10.376Z,77.02
2018-01-14T17:57:38.091Z,77.48
2018-01-14T18:00:05.610Z,77.65
2018-01-14T18:02:33.095Z,77.50
2018-01-14T18:05:00.564Z,77.43
2018-01-14T18:07:28.087Z,77.46
2018-01-14T18:09:55.566Z,77.65
2018-01-14T18:12:23.108Z,77.74
2018-01-14T18:14:50.603Z,78.01
2018-01-14T18:17:26.819Z,78.10
2018-01-14T18:19:54.314Z,78.30
2018-01-14T18:22:21.836Z,78.42
2018-01-14T18:24:49.343Z,78.77
2018-01-14T18:27:16.887Z,79.22
2018-01-14T18:29:44.480Z,79.33
2018-01-14T18:32:11.898Z,79.13
2018-01-14T18:34:39.389Z,79.42
2018-01-14T18:37:06.879Z,79.45
2018-01-14T18:39:34.371Z,79.92
2018-01-14T18:42:02.087Z,80.23
2018-01-14T18:44:30.502Z,80.31
2018-01-14T18:46:58.434Z,80.92
2018-01-14T18:49:25.930Z,81.09
2018-01-14T18:51:56.954Z,82.12
2018-01-14T18:54:24.441Z,83.09
2018-01-14T18:56:51.969Z,84.00
2018-01-14T18:59:19.458Z,84.44
2018-01-14T19:01:47.364Z,84.83
2018-01-14T19:04:14.865Z,85.33
2018-01-14T19:06:42.402Z,85.91
2018-01-14T19:09:10.206Z,86.43
2018-01-14T19:11:37.726Z,86.85
2018-01-14T19:14:05.275Z,87.20
2018-01-14T19:16:32.850Z,87.49
2018-01-14T19:19:00.401Z,87.64
2018-01-14T19:21:27.911Z,87.79
2018-01-14T19:23:55.425Z,87.75
2018-01-14T19:26:23.194Z,87.80
2018-01-14T19:29:03.292Z,88.05
2018-01-14T19:31:45.733Z,88.12
2018-01-14T19:34:13.251Z,87.80
2018-01-14T19:36:40.803Z,87.58
2018-01-14T19:39:08.330Z,87.68
2018-01-14T19:41:35.798Z,87.60
2018-01-14T19:44:07.516Z,87.79
2018-01-14T19:46:34.999Z,87.92
2018-01-14T19:49:02.479Z,88.15
2018-01-14T19:51:29.950Z,88.33
2018-01-14T19:53:57.668Z,88.58
2018-01-14T19:56:25.158Z,88.64
2018-01-14T19:58:52.651Z,88.69
2018-01-14T20:01:20.122Z,88.74
2018-01-14T20:03:47.635Z,88.72
2018-01-14T20:06:15.106Z,88.73
2018-01-14T20:11:35.888Z,88.94
2018-01-14T20:14:03.549Z,89.05
2018-01-14T20:16:32.038Z,89.32
2018-01-14T20:18:59.532Z,89.42
2018-01-14T20:21:27.030Z,89.58
2018-01-14T20:23:54.511Z,89.71
2018-01-14T20:26:21.981Z,89.68
2018-01-14T20:28:49.463Z,89.70
2018-01-14T20:31:16.923Z,89.73
2018-01-14T20:33:44.400Z,89.90
2018-01-14T20:36:11.862Z,89.77
2018-01-14T20:38:39.391Z,89.28
2018-01-14T20:41:06.831Z,89.10
2018-01-14T20:43:34.324Z,88.95
2018-01-14T20:46:01.800Z,88.25
2018-01-14T20:48:29.284Z,88.28
2018-01-14T20:50:56.742Z,88.34
2018-01-14T20:53:24.227Z,88.23
2018-01-14T20:55:51.698Z,88.49
2018-01-14T20:58:19.178Z,88.77
2018-01-14T21:00:46.671Z,89.09
2018-01-14T21:03:14.138Z,89.21
2018-01-14T21:05:41.694Z,89.43
2018-01-14T21:08:09.162Z,89.53
2018-01-14T21:10:36.668Z,89.75
2018-01-14T21:13:04.126Z,89.88
2018-01-14T21:15:31.618Z,89.96
2018-01-14T21:17:59.083Z,90.01
2018-01-14T21:20:26.571Z,90.12
2018-01-14T21:22:54.038Z,90.16
2018-01-14T21:25:21.528Z,90.20
2018-01-14T21:27:49.000Z,90.27
2018-01-14T21:30:16.488Z,90.41
2018-01-14T21:32:43.957Z,90.52
2018-01-14T21:35:11.439Z,90.54
2018-01-14T21:37:38.945Z,90.53
2018-01-14T21:40:06.434Z,90.42
2018-01-14T21:42:33.898Z,90.17
2018-01-14T21:45:01.387Z,89.24
2018-01-14T21:47:28.843Z,88.01
2018-01-14T21:49:56.336Z,87.39
2018-01-14T21:52:23.807Z,86.62
2018-01-14T21:54:51.290Z,85.86
2018-01-14T21:57:18.754Z,85.70
2018-01-14T21:59:46.238Z,85.80
2018-01-14T22:02:13.714Z,85.82
2018-01-14T22:04:41.235Z,84.98
2018-01-14T22:07:08.702Z,84.82
2018-01-14T22:09:36.199Z,84.98
2018-01-14T22:12:03.672Z,85.56
2018-01-14T22:14:31.155Z,86.13
2018-01-14T22:16:58.623Z,86.84
2018-01-14T22:19:26.098Z,87.42
2018-01-14T22:21:53.607Z,87.98
2018-01-14T22:24:21.062Z,88.43
2018-01-14T22:26:48.548Z,88.67
2018-01-14T22:29:16.015Z,89.02
2018-01-14T22:31:43.592Z,89.32
2018-01-14T22:34:11.081Z,89.62
2018-01-14T22:36:38.567Z,89.53
2018-01-14T22:39:06.035Z,89.53
2018-01-14T22:41:33.495Z,89.50
2018-01-14T22:44:00.979Z,89.39
2018-01-14T22:46:28.439Z,89.46
2018-01-14T22:48:55.922Z,89.56
2018-01-14T22:51:23.392Z,89.87
2018-01-14T22:53:50.871Z,90.07
2018-01-14T22:56:18.404Z,90.07
2018-01-14T22:58:45.900Z,89.65
2018-01-14T23:01:13.360Z,89.67
2018-01-14T23:03:40.839Z,89.79
2018-01-14T23:06:08.299Z,90.03
2018-01-14T23:08:35.762Z,89.96
2018-01-14T23:11:03.252Z,89.91
2018-01-14T23:13:30.710Z,89.95
2018-01-14T23:15:58.194Z,90.00
2018-01-14T23:18:25.658Z,90.02
2018-01-14T23:20:53.191Z,90.10
2018-01-14T23:23:20.656Z,90.19
2018-01-14T23:25:48.157Z,90.08
2018-01-14T23:28:15.622Z,90.09
2018-01-14T23:30:43.269Z,90.09
2018-01-14T23:33:10.734Z,89.85
2018-01-14T23:35:38.190Z,89.99
2018-01-14T23:38:05.713Z,90.12
2018-01-14T23:40:33.197Z,90.14
2018-01-14T23:43:00.683Z,90.11
2018-01-14T23:45:28.151Z,90.04
2018-01-14T23:47:55.631Z,90.10
2018-01-14T23:50:23.094Z,90.08
2018-01-14T23:52:50.574Z,90.24
2018-01-14T23:55:18.039Z,90.45
2018-01-14T23:57:45.541Z,90.74
